createdAt,value
2023-05-09T00:00:47.227Z,4.65
2023-05-09T00:03:32.093Z,4.93
2023-05-09T00:06:05.503Z,5.07
2023-05-09T00:08:36.536Z,5.55
2023-05-09T00:11:08.065Z,4.97
2023-05-09T00:13:37.615Z,5.13
2023-05-09T00:16:08.510Z,5.03
2023-05-09T00:18:42.392Z,5.70
2023-05-09T00:21:11.925Z,5.40
2023-05-09T00:23:43.208Z,5.07
2023-05-09T00:26:11.982Z,5.15
2023-05-09T00:28:44.214Z,5.30
2023-05-09T00:31:14.242Z,4.80
2023-05-09T00:33:43.159Z,4.78
2023-05-09T00:36:12.044Z,5.30
2023-05-09T00:38:40.660Z,4.82
2023-05-09T00:41:11.539Z,4.80
2023-05-09T00:43:40.519Z,5.35
2023-05-09T00:46:09.419Z,4.40
2023-05-09T00:48:38.322Z,4.95
2023-05-09T00:51:09.855Z,5.15
2023-05-09T00:53:47.895Z,5.57
2023-05-09T00:56:29.488Z,4.90
2023-05-09T00:59:02.963Z,4.93
2023-05-09T01:01:35.178Z,4.70
2023-05-09T01:04:04.039Z,4.85
2023-05-09T01:06:43.418Z,4.82
2023-05-09T01:09:25.196Z,5.07
2023-05-09T01:15:05.375Z,4.65
2023-05-09T01:17:50.027Z,4.97
2023-05-09T01:20:28.738Z,4.90
2023-05-09T01:23:28.382Z,5.00
2023-05-09T01:26:04.332Z,4.60
2023-05-09T01:28:53.664Z,4.30
2023-05-09T01:31:30.444Z,4.75
2023-05-09T01:36:42.030Z,4.32
2023-05-09T01:39:16.553Z,4.60
2023-05-09T01:42:02.049Z,5.03
2023-05-09T01:44:42.753Z,5.38
2023-05-09T01:47:16.474Z,4.90
2023-05-09T01:49:50.250Z,4.50
2023-05-09T01:52:23.059Z,4.80
2023-05-09T01:54:53.036Z,4.70
2023-05-09T01:57:29.664Z,4.97
2023-05-09T02:00:10.736Z,4.72
2023-05-09T02:02:42.182Z,5.05
2023-05-09T02:05:12.365Z,4.75
2023-05-09T02:07:43.937Z,5.05
2023-05-09T02:10:13.779Z,4.80
2023-05-09T02:12:43.077Z,4.80
2023-05-09T02:15:12.630Z,4.38
2023-05-09T02:17:45.776Z,4.55
2023-05-09T02:20:16.454Z,4.50
2023-05-09T02:23:00.599Z,4.50
2023-05-09T02:25:39.158Z,4.78
2023-05-09T02:28:12.710Z,4.60
2023-05-09T02:30:47.525Z,4.53
2023-05-09T02:33:18.372Z,4.57
2023-05-09T02:35:48.185Z,4.82
2023-05-09T02:38:33.928Z,4.70
2023-05-09T02:41:03.228Z,4.23
2023-05-09T02:43:32.604Z,4.68
2023-05-09T02:46:06.690Z,4.50
2023-05-09T02:48:42.814Z,4.82
2023-05-09T02:51:16.264Z,4.75
2023-05-09T02:53:45.294Z,4.68
2023-05-09T02:56:14.342Z,4.32
2023-05-09T02:58:44.433Z,4.38
2023-05-09T03:01:15.734Z,4.53
2023-05-09T03:03:46.844Z,4.65
2023-05-09T03:06:24.435Z,4.90
2023-05-09T03:08:56.878Z,4.40
2023-05-09T03:11:26.173Z,4.70
2023-05-09T03:13:58.568Z,5.10
2023-05-09T03:16:35.139Z,4.82
2023-05-09T03:19:19.385Z,4.40
2023-05-09T03:21:59.123Z,4.80
2023-05-09T03:24:39.687Z,4.17
2023-05-09T03:27:20.315Z,4.60
2023-05-09T03:29:50.189Z,4.57
2023-05-09T03:32:19.157Z,4.50
2023-05-09T03:34:52.551Z,4.18
2023-05-09T03:37:36.002Z,4.25
2023-05-09T03:40:08.881Z,4.20
2023-05-09T03:42:39.692Z,4.32
2023-05-09T03:45:20.499Z,4.30
2023-05-09T03:47:53.397Z,3.80
2023-05-09T03:50:26.855Z,3.85
2023-05-09T03:52:57.692Z,3.95
2023-05-09T03:55:28.277Z,3.83
2023-05-09T03:57:57.686Z,3.92
2023-05-09T04:00:27.747Z,4.15
2023-05-09T04:03:02.581Z,3.80
2023-05-09T04:05:50.388Z,4.10
2023-05-09T04:08:53.608Z,2.92
2023-05-09T04:11:31.131Z,2.50
2023-05-09T04:14:41.535Z,2.63
2023-05-09T04:17:21.097Z,2.72
2023-05-09T04:20:20.701Z,2.15
2023-05-09T04:23:03.396Z,2.40
2023-05-09T04:25:38.364Z,2.15
2023-05-09T04:28:27.681Z,2.58
2023-05-09T04:38:05.009Z,2.20
2023-05-09T04:40:55.654Z,2.35
2023-05-09T04:46:41.215Z,2.50
2023-05-09T04:53:03.432Z,1.50
2023-05-09T04:55:37.722Z,1.70
2023-05-09T04:58:25.041Z,2.00
2023-05-09T05:01:02.664Z,2.10
2023-05-09T05:03:55.054Z,1.98
2023-05-09T05:14:16.350Z,3.10
2023-05-09T05:16:35.982Z,2.78
2023-05-09T05:19:21.100Z,3.70
2023-05-09T05:22:21.624Z,4.05
2023-05-09T05:24:55.172Z,2.60
2023-05-09T05:27:56.453Z,2.22
2023-05-09T05:30:40.221Z,1.80
2023-05-09T05:33:21.622Z,2.20
2023-05-09T05:36:04.120Z,1.95
2023-05-09T05:38:49.510Z,1.85
2023-05-09T05:41:35.950Z,1.80
2023-05-09T05:44:27.661Z,1.83
2023-05-09T05:50:00.863Z,1.90
2023-05-09T05:52:47.795Z,1.75
2023-05-09T05:55:19.162Z,2.03
2023-05-09T05:57:52.829Z,1.55
2023-05-09T06:00:27.056Z,1.92
2023-05-09T06:03:21.339Z,1.40
2023-05-09T06:06:29.642Z,1.35
2023-05-09T06:09:19.145Z,1.45
2023-05-09T06:15:16.867Z,1.40
2023-05-09T06:18:05.448Z,1.63
2023-05-09T06:20:46.696Z,1.52
2023-05-09T06:24:16.709Z,1.75
2023-05-09T06:29:57.365Z,2.05
2023-05-09T06:32:34.204Z,2.38
2023-05-09T06:35:10.670Z,1.83
2023-05-09T06:40:37.328Z,1.60
2023-05-09T06:43:07.867Z,2.00
2023-05-09T06:46:07.077Z,1.67
2023-05-09T06:49:00.725Z,2.10
2023-05-09T06:55:49.901Z,1.73
2023-05-09T07:02:11.481Z,1.80
2023-05-09T07:05:04.115Z,1.92
2023-05-09T07:08:03.087Z,2.00
2023-05-09T07:10:42.316Z,2.15
2023-05-09T07:13:50.282Z,2.17
2023-05-09T07:17:21.176Z,2.17
2023-05-09T07:20:36.026Z,2.03
2023-05-09T07:23:18.960Z,2.40
2023-05-09T07:26:00.181Z,2.20
2023-05-09T07:28:49.961Z,1.85
2023-05-09T07:31:53.292Z,2.30
2023-05-09T07:34:50.765Z,2.35
2023-05-09T07:37:25.018Z,1.98
2023-05-09T07:57:18.084Z,2.38
2023-05-09T08:03:44.049Z,1.90
2023-05-09T08:06:39.186Z,2.65
2023-05-09T08:10:02.018Z,2.20
2023-05-09T08:17:00.128Z,2.00
2023-05-09T08:19:52.443Z,2.78
2023-05-09T08:22:40.820Z,2.35
2023-05-09T08:25:23.284Z,2.85
2023-05-09T08:28:05.574Z,3.50
2023-05-09T08:31:25.966Z,2.58
2023-05-09T08:34:39.712Z,2.58
2023-05-09T08:37:31.524Z,2.47
2023-05-09T08:40:17.817Z,2.65
2023-05-09T08:45:38.109Z,2.00
2023-05-09T08:48:26.890Z,1.80
2023-05-09T08:51:11.936Z,2.17
2023-05-09T08:54:06.345Z,2.70
2023-05-09T08:57:00.456Z,2.40
2023-05-09T09:02:47.818Z,2.45
2023-05-09T09:05:43.683Z,2.67
2023-05-09T09:08:37.688Z,2.30
2023-05-09T09:11:17.075Z,2.15
2023-05-09T09:13:46.989Z,2.13
2023-05-09T09:16:20.342Z,2.83
2023-05-09T09:19:29.227Z,2.35
2023-05-09T09:25:04.893Z,2.17
2023-05-09T09:30:48.456Z,2.47
2023-05-09T09:33:39.603Z,2.40
2023-05-09T09:43:47.720Z,2.55
2023-05-09T09:46:42.444Z,2.50
2023-05-09T09:50:19.575Z,2.50
2023-05-09T09:53:40.473Z,2.25
2023-05-09T09:56:18.641Z,1.98
2023-05-09T09:59:25.151Z,1.77
2023-05-09T10:02:55.687Z,1.90
2023-05-09T10:05:28.880Z,1.90
2023-05-09T10:08:08.287Z,2.00
2023-05-09T10:10:52.441Z,2.08
2023-05-09T10:13:55.690Z,2.00
2023-05-09T10:16:40.198Z,2.20
2023-05-09T10:19:19.070Z,2.15
2023-05-09T10:21:53.031Z,2.42
2023-05-09T10:24:35.957Z,2.25
2023-05-09T10:27:33.401Z,2.13
2023-05-09T10:30:14.253Z,2.47
2023-05-09T10:32:53.586Z,2.60
2023-05-09T10:35:45.488Z,2.30
2023-05-09T10:38:17.973Z,2.45
2023-05-09T10:40:51.072Z,2.40
2023-05-09T10:43:48.446Z,2.17
2023-05-09T10:46:18.517Z,2.20
2023-05-09T10:48:55.722Z,2.30
2023-05-09T10:51:32.822Z,2.25
2023-05-09T10:54:01.679Z,2.38
2023-05-09T10:56:36.688Z,2.30
2023-05-09T10:59:07.852Z,2.60
2023-05-09T11:01:39.334Z,2.38
2023-05-09T11:04:14.760Z,2.47
2023-05-09T11:06:57.119Z,2.75
2023-05-09T11:09:35.537Z,2.65
2023-05-09T11:12:11.666Z,2.88
2023-05-09T11:14:46.055Z,2.70
2023-05-09T11:17:31.353Z,2.10
2023-05-09T11:26:41.275Z,2.47
2023-05-09T11:29:20.693Z,2.72
2023-05-09T11:32:14.093Z,2.20
2023-05-09T11:35:06.814Z,2.40
2023-05-09T11:38:23.320Z,2.63
2023-05-09T11:41:27.946Z,2.75
2023-05-09T11:47:50.442Z,2.75
2023-05-09T11:50:36.228Z,2.42
2023-05-09T11:56:09.562Z,2.88
2023-05-09T11:58:54.246Z,2.60
2023-05-09T12:01:27.412Z,2.70
2023-05-09T12:04:01.494Z,2.60
2023-05-09T12:06:49.838Z,2.67
2023-05-09T12:09:31.731Z,2.70
2023-05-09T12:12:26.665Z,2.40
2023-05-09T12:24:39.769Z,2.42
2023-05-09T12:27:32.458Z,2.85
2023-05-09T12:31:00.357Z,2.42
2023-05-09T12:34:07.067Z,2.47
2023-05-09T12:36:52.284Z,2.35
2023-05-09T12:40:19.293Z,2.67
2023-05-09T12:46:23.617Z,2.40
2023-05-09T12:49:13.671Z,2.30
2023-05-09T12:51:49.866Z,2.40
2023-05-09T12:54:25.776Z,2.30
2023-05-09T12:56:57.038Z,2.45
2023-05-09T12:59:28.344Z,2.40
2023-05-09T13:02:06.915Z,2.30
2023-05-09T13:04:35.857Z,2.60
2023-05-09T13:07:16.586Z,2.50
2023-05-09T13:10:06.419Z,2.50
2023-05-09T13:12:39.100Z,2.30
2023-05-09T13:15:13.275Z,2.53
2023-05-09T13:17:42.144Z,2.58
2023-05-09T13:20:12.477Z,2.20
2023-05-09T13:22:44.078Z,2.53
2023-05-09T13:25:17.040Z,2.58
2023-05-09T13:27:46.130Z,2.20
2023-05-09T13:30:16.916Z,3.35
2023-05-09T13:32:47.737Z,1.95
2023-05-09T13:35:16.827Z,2.50
2023-05-09T13:37:52.635Z,2.50
2023-05-09T13:40:21.072Z,2.13
2023-05-09T13:42:49.862Z,2.38
2023-05-09T13:45:19.134Z,2.55
2023-05-09T13:47:48.126Z,2.40
2023-05-09T13:50:17.382Z,2.60
2023-05-09T13:52:50.030Z,2.63
2023-05-09T13:55:20.118Z,2.53
2023-05-09T13:57:52.368Z,2.60
2023-05-09T14:00:22.332Z,2.53
2023-05-09T14:02:54.171Z,2.55
2023-05-09T14:05:33.863Z,2.65
2023-05-09T14:08:04.598Z,2.38
2023-05-09T14:10:49.788Z,2.40
2023-05-09T14:13:19.273Z,2.37
2023-05-09T14:15:47.851Z,2.30
2023-05-09T14:18:21.098Z,2.17
2023-05-09T14:20:55.573Z,2.22
2023-05-09T14:23:26.300Z,2.38
2023-05-09T14:26:01.983Z,2.70
2023-05-09T14:28:39.604Z,2.28
2023-05-09T14:31:16.153Z,2.45
2023-05-09T14:33:58.382Z,2.50
2023-05-09T14:36:28.457Z,2.50
2023-05-09T14:39:17.885Z,2.40
2023-05-09T14:41:49.183Z,2.53
2023-05-09T14:44:20.461Z,2.50
2023-05-09T14:46:50.708Z,2.47
2023-05-09T14:49:19.291Z,2.63
2023-05-09T14:51:48.311Z,2.42
2023-05-09T14:54:20.543Z,2.78
2023-05-09T14:56:52.372Z,2.83
2023-05-09T14:59:21.411Z,2.63
2023-05-09T15:01:51.101Z,2.90
2023-05-09T15:04:19.933Z,2.80
2023-05-09T15:06:50.107Z,2.60
2023-05-09T15:09:20.757Z,2.58
2023-05-09T15:11:49.819Z,2.38
2023-05-09T15:14:27.983Z,2.70
2023-05-09T15:17:10.468Z,2.75
2023-05-09T15:19:49.559Z,2.50
2023-05-09T15:22:44.285Z,2.65
2023-05-09T15:25:23.596Z,2.70
2023-05-09T15:27:59.580Z,2.70
2023-05-09T15:30:30.807Z,2.80
2023-05-09T15:33:05.508Z,2.58
2023-05-09T15:35:38.616Z,2.55
2023-05-09T15:38:12.802Z,2.67
2023-05-09T15:40:49.977Z,2.80
2023-05-09T15:43:19.336Z,2.97
2023-05-09T15:45:48.410Z,3.00
2023-05-09T15:48:17.626Z,2.70
2023-05-09T15:50:46.909Z,2.92
2023-05-09T15:53:17.803Z,2.97
2023-05-09T15:55:47.012Z,2.70
2023-05-09T15:58:17.702Z,2.90
2023-05-09T16:00:49.055Z,2.80
2023-05-09T16:03:17.967Z,2.88
2023-05-09T16:05:47.415Z,2.88
2023-05-09T16:08:17.113Z,2.60
2023-05-09T16:10:49.214Z,3.00
2023-05-09T16:13:35.765Z,3.20
2023-05-09T16:19:17.918Z,2.58
2023-05-09T16:21:49.253Z,2.60
2023-05-09T16:24:17.801Z,2.97
2023-05-09T16:26:49.765Z,2.53
2023-05-09T16:29:23.687Z,2.97
2023-05-09T16:31:54.923Z,2.80
2023-05-09T16:34:23.894Z,3.15
2023-05-09T16:36:53.221Z,3.00
2023-05-09T16:39:29.282Z,2.80
2023-05-09T16:42:02.703Z,2.88
2023-05-09T16:44:37.687Z,2.90
2023-05-09T16:47:07.009Z,3.10
2023-05-09T16:49:36.750Z,3.13
2023-05-09T16:52:07.614Z,2.83
2023-05-09T16:54:39.318Z,2.97
2023-05-09T16:57:08.545Z,2.80
2023-05-09T16:59:41.885Z,2.80
2023-05-09T17:02:20.721Z,2.88
2023-05-09T17:04:50.176Z,3.00
2023-05-09T17:07:19.410Z,3.10
2023-05-09T17:09:49.701Z,2.67
2023-05-09T17:12:18.668Z,2.90
2023-05-09T17:14:52.814Z,3.20
2023-05-09T17:17:32.215Z,2.88
2023-05-09T17:20:01.552Z,3.00
2023-05-09T17:22:32.267Z,2.80
2023-05-09T17:25:01.314Z,3.10
2023-05-09T17:27:29.910Z,2.95
2023-05-09T17:30:01.269Z,3.00
2023-05-09T17:32:33.264Z,3.05
2023-05-09T17:35:02.274Z,2.92
2023-05-09T17:37:33.815Z,3.08
2023-05-09T17:40:03.731Z,3.05
2023-05-09T17:42:33.031Z,3.03
2023-05-09T17:45:15.565Z,3.20
2023-05-09T17:47:55.429Z,3.38
2023-05-09T17:50:37.407Z,2.88
2023-05-09T17:53:11.145Z,3.20
2023-05-09T17:55:59.744Z,3.08
2023-05-09T17:59:21.576Z,3.17
2023-05-09T18:02:06.502Z,3.05
2023-05-09T18:04:45.421Z,3.10
2023-05-09T18:07:28.984Z,2.90
2023-05-09T18:10:08.032Z,2.95
2023-05-09T18:20:13.056Z,3.15
2023-05-09T18:23:08.583Z,3.60
2023-05-09T18:25:58.469Z,3.22
2023-05-09T18:29:30.275Z,2.92
2023-05-09T18:32:51.710Z,3.17
2023-05-09T18:35:58.408Z,3.22
2023-05-09T18:45:58.726Z,3.00
2023-05-09T18:48:42.350Z,3.13
2023-05-09T18:54:33.421Z,3.30
2023-05-09T19:00:23.938Z,3.10
2023-05-09T19:03:27.447Z,3.10
2023-05-09T19:09:38.654Z,3.60
2023-05-09T19:12:12.604Z,3.22
2023-05-09T19:14:42.530Z,3.60
2023-05-09T19:17:27.838Z,3.30
2023-05-09T19:20:26.669Z,3.50
2023-05-09T19:23:06.894Z,3.35
2023-05-09T19:25:44.719Z,3.20
2023-05-09T19:28:26.771Z,3.53
2023-05-09T19:31:08.798Z,3.55
2023-05-09T19:34:14.170Z,3.22
2023-05-09T19:39:44.443Z,3.65
2023-05-09T19:42:46.656Z,3.50
2023-05-09T19:46:01.192Z,3.80
2023-05-09T19:55:56.751Z,3.65
2023-05-09T19:59:03.949Z,3.38
2023-05-09T20:01:37.882Z,3.40
2023-05-09T20:04:24.876Z,3.25
2023-05-09T20:07:06.648Z,3.60
2023-05-09T20:09:44.006Z,3.80
2023-05-09T20:12:22.974Z,3.65
2023-05-09T20:14:57.392Z,3.83
2023-05-09T20:17:36.403Z,3.47
2023-05-09T20:20:17.996Z,3.33
2023-05-09T20:25:32.052Z,3.80
2023-05-09T20:28:03.753Z,3.60
2023-05-09T20:30:35.775Z,3.60
2023-05-09T20:33:09.055Z,3.55
2023-05-09T20:35:46.171Z,3.78
2023-05-09T20:38:15.952Z,3.60
2023-05-09T20:40:45.533Z,3.83
2023-05-09T20:43:14.635Z,3.88
2023-05-09T20:45:43.166Z,3.60
2023-05-09T20:48:13.747Z,3.80
2023-05-09T20:50:43.222Z,3.72
2023-05-09T20:53:11.967Z,3.90
2023-05-09T20:55:48.977Z,3.58
2023-05-09T20:58:21.944Z,3.80
2023-05-09T21:00:51.040Z,3.60
2023-05-09T21:03:21.187Z,3.97
2023-05-09T21:05:50.337Z,3.60
2023-05-09T21:08:19.442Z,3.67
2023-05-09T21:10:48.911Z,3.75
2023-05-09T21:13:17.562Z,3.95
2023-05-09T21:15:50.308Z,4.40
2023-05-09T21:18:23.298Z,4.15
2023-05-09T21:20:51.911Z,3.60
2023-05-09T21:23:20.763Z,3.80
2023-05-09T21:25:49.580Z,3.63
2023-05-09T21:28:21.090Z,3.90
2023-05-09T21:30:52.351Z,3.50
2023-05-09T21:33:22.898Z,3.65
2023-05-09T21:35:59.602Z,3.80
2023-05-09T21:38:29.316Z,3.42
2023-05-09T21:40:58.328Z,3.58
2023-05-09T21:43:28.735Z,3.70
2023-05-09T21:46:00.441Z,3.53
2023-05-09T21:48:47.505Z,4.10
2023-05-09T21:51:24.195Z,3.50
2023-05-09T21:53:52.634Z,3.90
2023-05-09T21:56:22.714Z,3.80
2023-05-09T21:58:51.627Z,3.90
2023-05-09T22:01:20.418Z,3.78
2023-05-09T22:03:51.662Z,4.25
2023-05-09T22:06:20.701Z,3.97
2023-05-09T22:08:51.344Z,3.33
2023-05-09T22:11:19.819Z,3.88
2023-05-09T22:13:51.475Z,3.70
2023-05-09T22:16:22.817Z,3.90
2023-05-09T22:18:56.027Z,3.63
2023-05-09T22:21:27.810Z,3.53
2023-05-09T22:24:02.113Z,3.90
2023-05-09T22:26:30.821Z,4.10
2023-05-09T22:29:13.321Z,3.70
2023-05-09T22:31:44.144Z,4.15
2023-05-09T22:34:15.078Z,4.10
2023-05-09T22:36:44.032Z,3.42
2023-05-09T22:39:14.174Z,3.72
2023-05-09T22:41:45.035Z,3.92
2023-05-09T22:44:19.082Z,3.80
2023-05-09T22:47:21.393Z,3.10
2023-05-09T22:49:58.069Z,3.97
2023-05-09T22:52:28.195Z,4.00
2023-05-09T22:54:57.835Z,3.83
2023-05-09T22:57:26.695Z,4.00
2023-05-09T22:59:56.186Z,3.92
2023-05-09T23:02:24.754Z,3.72
2023-05-09T23:11:43.660Z,3.58
2023-05-09T23:14:12.453Z,3.63
2023-05-09T23:16:41.364Z,3.92
2023-05-09T23:19:13.814Z,4.05
2023-05-09T23:21:44.546Z,3.47
2023-05-09T23:24:16.416Z,3.80
2023-05-09T23:26:45.300Z,3.80
2023-05-09T23:29:14.130Z,3.78
2023-05-09T23:31:43.093Z,3.55
2023-05-09T23:34:19.869Z,4.07
2023-05-09T23:36:54.435Z,4.15
2023-05-09T23:39:23.359Z,3.67
2023-05-09T23:41:54.780Z,3.72
2023-05-09T23:44:32.868Z,3.45
2023-05-09T23:47:02.130Z,4.10
2023-05-09T23:49:31.059Z,3.92
2023-05-09T23:52:02.946Z,3.80
2023-05-09T23:54:35.682Z,3.97
2023-05-09T23:57:07.217Z,3.65
2023-05-09T23:59:36.065Z,3.50
